Time;durP1;ratioP1;P1;durP2;ratioP2;P2;SDS_P1;SDS_P2;PMS_P1;PMS_P2;Temp;Humidity;BMP_temperature;BMP_pressure;BME280_temperature;BME280_humidity;BME280_pressure;Samples;Min_cycle;Max_cycle;Signal;HPM_P1;HPM_P2
2022/10/13 00:00:39;;;;;;;;;;;18.00;53.60;;;;;;5095214;28;20305;-75
2022/10/13 00:03:04;;;;;;;;;;;18.70;54.00;;;;;;5076940;28;19965;-75
2022/10/13 00:05:30;;;;;;;;;;;18.60;53.90;;;;;;5076428;28;19920;-75
2022/10/13 00:07:56;;;;;;;;;;;18.60;53.90;;;;;;5076895;28;19924;-75
2022/10/13 00:10:22;;;;;;;;;;;18.70;54.00;;;;;;5076627;28;19924;-75
2022/10/13 00:12:47;;;;;;;;;;;18.60;54.00;;;;;;5094913;28;19931;-75
2022/10/13 00:15:13;;;;;;;;;;;18.60;54.00;;;;;;5076542;28;19969;-75
2022/10/13 00:17:40;;;;;;;;;;;18.60;54.00;;;;;;5076980;28;19924;-76
2022/10/13 00:20:06;;;;;;;;;;;18.60;54.00;;;;;;5076830;28;19943;-72
2022/10/13 00:22:32;;;;;;;;;;;18.60;54.80;;;;;;5076902;28;19924;-73
2022/10/13 00:24:57;;;;;;;;;;;18.60;54.10;;;;;;5076429;28;19927;-76
2022/10/13 00:27:23;;;;;;;;;;;18.60;54.00;;;;;;5076464;28;19920;-75
2022/10/13 00:29:48;;;;;;;;;;;18.60;54.00;;;;;;5076701;28;19920;-76
2022/10/13 00:32:14;;;;;;;;;;;18.60;54.00;;;;;;5076356;28;19963;-75
2022/10/13 00:34:39;;;;;;;;;;;18.60;54.10;;;;;;5076126;28;19963;-75
2022/10/13 00:37:05;;;;;;;;;;;18.60;54.10;;;;;;5076576;28;20288;-74
2022/10/13 00:39:31;;;;;;;;;;;18.60;54.10;;;;;;5094409;28;19924;-75
2022/10/13 00:41:57;;;;;;;;;;;18.50;54.00;;;;;;5076184;28;19924;-75
2022/10/13 00:44:43;;;;;;;;;;;18.60;54.10;;;;;;5076469;28;20298;-76
2022/10/13 00:47:08;;;;;;;;;;;18.50;54.10;;;;;;5075898;28;20468;-72
2022/10/13 00:49:34;;;;;;;;;;;18.50;54.10;;;;;;5076052;28;19975;-75
2022/10/13 00:52:00;;;;;;;;;;;18.50;54.10;;;;;;5076052;28;19920;-75
2022/10/13 00:54:25;;;;;;;;;;;18.50;54.10;;;;;;5075988;28;19924;-75
2022/10/13 00:56:51;;;;;;;;;;;18.50;54.10;;;;;;5075786;28;20356;-72
2022/10/13 00:59:21;;;;;;;;;;;18.50;54.10;;;;;;5094002;28;19924;-75
2022/10/13 01:01:48;;;;;;;;;;;18.50;54.20;;;;;;5076071;28;19928;-76
2022/10/13 01:04:14;;;;;;;;;;;18.50;54.20;;;;;;5075853;28;20375;-75
2022/10/13 01:06:39;;;;;;;;;;;18.50;54.20;;;;;;5075647;28;19926;-75
2022/10/13 01:09:05;;;;;;;;;;;18.50;54.20;;;;;;5076251;28;19993;-75
2022/10/13 01:11:39;;;;;;;;;;;18.50;54.20;;;;;;5075539;28;20379;-72
2022/10/13 01:16:50;;;;;;;;;;;18.50;54.20;;;;;;5089915;28;19919;-75
2022/10/13 01:24:42;;;;;;;;;;;18.40;54.10;;;;;;5110117;27;19913;-74
2022/10/13 01:27:28;;;;;;;;;;;18.40;54.20;;;;;;5108848;28;19927;-75
2022/10/13 01:30:13;;;;;;;;;;;18.40;54.20;;;;;;5108975;28;19920;-74
2022/10/13 01:35:29;;;;;;;;;;;18.30;54.20;;;;;;5110358;27;19913;-72
2022/10/13 01:38:14;;;;;;;;;;;18.40;54.20;;;;;;5108912;28;20391;-74
2022/10/13 01:40:48;;;;;;;;;;;18.40;54.20;;;;;;5107962;28;19920;-75
2022/10/13 01:45:59;;;;;;;;;;;18.30;54.20;;;;;;5110556;27;19920;-73
2022/10/13 01:48:25;;;;;;;;;;;18.40;54.20;;;;;;5109031;28;19969;-72
2022/10/13 01:50:51;;;;;;;;;;;18.40;54.20;;;;;;5143260;27;19920;-72
2022/10/13 01:53:18;;;;;;;;;;;18.40;54.20;;;;;;5109966;28;20375;-75
2022/10/13 01:55:48;;;;;;;;;;;18.30;54.20;;;;;;5109207;28;20011;-74
2022/10/13 01:58:14;;;;;;;;;;;18.40;54.30;;;;;;5108984;28;19927;-75
2022/10/13 02:00:42;;;;;;;;;;;18.40;54.30;;;;;;5108727;28;19924;-75
2022/10/13 02:03:28;;;;;;;;;;;18.30;54.20;;;;;;5108598;28;19920;-75
2022/10/13 02:06:01;;;;;;;;;;;18.30;54.30;;;;;;5108619;28;20431;-74
2022/10/13 02:08:31;;;;;;;;;;;18.30;54.20;;;;;;5106703;28;19920;-72
2022/10/13 02:11:03;;;;;;;;;;;18.30;54.20;;;;;;5108909;28;20410;-72
2022/10/13 02:13:31;;;;;;;;;;;18.40;54.30;;;;;;5108238;28;19920;-72
2022/10/13 02:15:58;;;;;;;;;;;18.40;54.30;;;;;;5109853;28;19928;-75
2022/10/13 02:18:27;;;;;;;;;;;18.50;54.30;;;;;;5108620;28;19920;-74
2022/10/13 02:20:53;;;;;;;;;;;18.50;54.20;;;;;;5108360;28;20210;-74
2022/10/13 02:23:19;;;;;;;;;;;18.60;54.20;;;;;;5108286;28;19995;-74
2022/10/13 02:25:46;;;;;;;;;;;18.70;54.10;;;;;;5108212;28;20097;-74
2022/10/13 02:28:12;;;;;;;;;;;18.70;54.10;;;;;;5106776;28;20414;-74
2022/10/13 02:30:39;;;;;;;;;;;18.70;53.90;;;;;;5108145;28;20065;-74
2022/10/13 02:33:04;;;;;;;;;;;18.70;53.90;;;;;;5108034;28;19920;-74
2022/10/13 02:35:31;;;;;;;;;;;18.80;53.80;;;;;;5107991;28;20014;-74
2022/10/13 02:37:57;;;;;;;;;;;18.90;53.70;;;;;;5108052;28;19924;-74
2022/10/13 02:40:23;;;;;;;;;;;18.80;53.60;;;;;;5107926;28;19927;-74
2022/10/13 02:42:48;;;;;;;;;;;18.90;53.50;;;;;;5107640;28;19947;-74
2022/10/13 02:45:14;;;;;;;;;;;18.90;53.50;;;;;;5107440;28;19970;-74
2022/10/13 02:47:39;;;;;;;;;;;18.90;53.40;;;;;;5108184;28;19920;-75
2022/10/13 02:50:05;;;;;;;;;;;18.90;53.40;;;;;;5109009;28;20398;-75
2022/10/13 02:52:31;;;;;;;;;;;18.90;53.30;;;;;;5108083;28;19920;-75
2022/10/13 02:54:56;;;;;;;;;;;18.90;53.30;;;;;;5107567;28;19924;-74
2022/10/13 02:57:22;;;;;;;;;;;18.90;53.30;;;;;;5093515;28;19920;-74
2022/10/13 02:59:48;;;;;;;;;;;18.90;53.20;;;;;;5094091;28;19920;-75
2022/10/13 03:02:13;;;;;;;;;;;19.00;53.20;;;;;;5094006;28;19927;-74
2022/10/13 03:04:39;;;;;;;;;;;18.90;53.20;;;;;;5093741;28;19968;-75
2022/10/13 03:07:04;;;;;;;;;;;18.90;53.20;;;;;;5094214;28;19978;-74
2022/10/13 03:09:30;;;;;;;;;;;18.90;53.20;;;;;;5093794;28;19920;-75
2022/10/13 03:11:55;;;;;;;;;;;18.90;53.20;;;;;;5093825;28;19921;-74
2022/10/13 03:14:21;;;;;;;;;;;18.90;53.20;;;;;;5093368;28;20011;-74
2022/10/13 03:16:46;;;;;;;;;;;18.90;53.20;;;;;;5093521;28;19986;-75
2022/10/13 03:19:12;;;;;;;;;;;18.90;53.20;;;;;;5095045;28;19973;-75
2022/10/13 03:21:38;;;;;;;;;;;18.90;53.20;;;;;;5093465;28;19924;-75
2022/10/13 03:24:05;;;;;;;;;;;18.80;53.10;;;;;;5093539;28;19970;-76
2022/10/13 03:26:31;;;;;;;;;;;18.80;53.10;;;;;;5093670;28;20046;-75
2022/10/13 03:28:56;;;;;;;;;;;18.90;53.20;;;;;;5093452;28;20301;-75
2022/10/13 03:31:22;;;;;;;;;;;18.80;53.20;;;;;;5093332;28;19927;-72
2022/10/13 03:33:48;;;;;;;;;;;18.80;53.20;;;;;;5093882;28;19971;-75
2022/10/13 03:36:13;;;;;;;;;;;18.80;53.20;;;;;;5092489;28;19920;-74
2022/10/13 03:38:39;;;;;;;;;;;18.80;53.20;;;;;;5093041;28;19963;-75
2022/10/13 03:41:05;;;;;;;;;;;18.70;53.20;;;;;;5093053;28;19920;-75
2022/10/13 03:43:31;;;;;;;;;;;18.80;53.30;;;;;;5093792;28;19920;-74
2022/10/13 03:45:57;;;;;;;;;;;18.80;53.30;;;;;;5096561;28;19930;-71
2022/10/13 03:48:23;;;;;;;;;;;18.70;53.30;;;;;;5096446;28;19920;-73
2022/10/13 03:50:48;;;;;;;;;;;18.70;53.30;;;;;;5114612;28;19919;-73
2022/10/13 03:53:14;;;;;;;;;;;18.70;53.40;;;;;;5096253;28;19927;-72
2022/10/13 03:55:39;;;;;;;;;;;18.70;53.40;;;;;;5095537;28;19920;-72
2022/10/13 03:58:05;;;;;;;;;;;18.70;53.40;;;;;;5095991;28;19928;-72
2022/10/13 04:00:30;;;;;;;;;;;18.70;53.40;;;;;;5114792;28;19919;-72
2022/10/13 04:02:56;;;;;;;;;;;18.70;53.40;;;;;;5096410;28;19985;-72
2022/10/13 04:05:21;;;;;;;;;;;18.70;53.40;;;;;;5096073;28;19924;-71
2022/10/13 04:07:47;;;;;;;;;;;18.70;53.40;;;;;;5095578;28;20268;-72
2022/10/13 04:10:12;;;;;;;;;;;18.70;53.40;;;;;;5114546;28;19924;-71
2022/10/13 04:12:38;;;;;;;;;;;18.70;53.30;;;;;;5113515;28;19919;-72
2022/10/13 04:15:04;;;;;;;;;;;18.70;53.30;;;;;;5095723;28;20413;-72
2022/10/13 04:17:29;;;;;;;;;;;18.70;53.30;;;;;;5095754;28;19927;-72
2022/10/13 04:19:55;;;;;;;;;;;18.70;53.30;;;;;;5095809;28;19967;-71
2022/10/13 04:22:20;;;;;;;;;;;18.70;53.30;;;;;;5096001;28;20015;-72
2022/10/13 04:24:46;;;;;;;;;;;18.70;53.30;;;;;;5095655;28;20365;-72
2022/10/13 04:27:11;;;;;;;;;;;18.70;53.30;;;;;;5095665;28;19972;-72
2022/10/13 04:29:37;;;;;;;;;;;18.70;53.30;;;;;;5095983;28;19931;-72
2022/10/13 04:32:02;;;;;;;;;;;18.70;53.30;;;;;;5095904;28;19920;-72
2022/10/13 04:34:28;;;;;;;;;;;18.70;53.30;;;;;;5113909;28;19974;-71
2022/10/13 04:36:53;;;;;;;;;;;18.70;53.30;;;;;;5095896;28;20363;-71
2022/10/13 04:39:19;;;;;;;;;;;18.70;53.20;;;;;;5095640;28;20020;-71
2022/10/13 04:41:44;;;;;;;;;;;18.70;53.20;;;;;;5095409;28;20060;-72
2022/10/13 04:44:10;;;;;;;;;;;18.70;53.20;;;;;;5078133;28;19930;-72
2022/10/13 04:46:35;;;;;;;;;;;18.70;53.20;;;;;;5095356;28;20026;-72
2022/10/13 04:49:01;;;;;;;;;;;18.70;53.20;;;;;;5095296;28;19924;-72
2022/10/13 04:51:26;;;;;;;;;;;18.80;53.30;;;;;;5095544;28;19993;-72
2022/10/13 04:53:54;;;;;;;;;;;18.80;53.30;;;;;;5094428;28;20329;-71
2022/10/13 04:56:19;;;;;;;;;;;18.70;53.30;;;;;;5095311;28;19919;-71
2022/10/13 04:58:45;;;;;;;;;;;18.70;53.20;;;;;;5113376;28;19981;-72
2022/10/13 05:01:12;;;;;;;;;;;18.80;53.30;;;;;;5095113;28;20288;-71
2022/10/13 05:03:38;;;;;;;;;;;18.70;53.20;;;;;;5095225;28;19959;-72
2022/10/13 05:06:03;;;;;;;;;;;18.80;53.30;;;;;;5095405;28;20401;-71
2022/10/13 05:08:29;;;;;;;;;;;18.70;53.30;;;;;;5095283;28;19962;-71
2022/10/13 05:10:55;;;;;;;;;;;18.70;53.30;;;;;;5095141;28;19920;-71
2022/10/13 05:13:21;;;;;;;;;;;18.70;53.30;;;;;;5094796;28;19924;-71
2022/10/13 05:15:47;;;;;;;;;;;18.70;53.30;;;;;;5094852;28;19923;-72
2022/10/13 05:18:12;;;;;;;;;;;18.70;53.30;;;;;;5094774;28;19919;-71
2022/10/13 05:20:38;;;;;;;;;;;18.70;53.30;;;;;;5112883;28;20025;-71
2022/10/13 05:23:04;;;;;;;;;;;18.70;53.40;;;;;;5095071;28;20081;-72
2022/10/13 05:25:29;;;;;;;;;;;18.70;53.30;;;;;;5094786;28;19924;-72
2022/10/13 05:27:54;;;;;;;;;;;18.70;53.30;;;;;;5095037;28;19923;-71
2022/10/13 05:30:20;;;;;;;;;;;18.70;53.40;;;;;;5094938;28;20282;-71
2022/10/13 05:32:45;;;;;;;;;;;18.70;54.10;;;;;;5112908;28;19920;-72
2022/10/13 05:35:11;;;;;;;;;;;18.80;53.40;;;;;;5112793;28;20375;-71
2022/10/13 05:37:36;;;;;;;;;;;18.70;53.30;;;;;;5094593;28;19924;-72
2022/10/13 05:40:02;;;;;;;;;;;18.70;53.30;;;;;;5095022;28;19919;-72
2022/10/13 05:42:28;;;;;;;;;;;18.70;53.40;;;;;;5094449;28;20774;-71
2022/10/13 05:44:55;;;;;;;;;;;18.70;53.30;;;;;;5094091;28;20010;-71
2022/10/13 05:47:25;;;;;;;;;;;18.80;53.40;;;;;;5090246;28;19969;-72
2022/10/13 05:49:51;;;;;;;;;;;18.70;53.30;;;;;;5110394;28;19971;-73
2022/10/13 05:52:16;;;;;;;;;;;18.80;53.40;;;;;;5082013;28;20642;-75
2022/10/13 05:54:45;;;;;;;;;;;18.80;53.50;;;;;;5109008;28;19924;-74
2022/10/13 05:57:14;;;;;;;;;;;18.80;54.10;;;;;;5107193;28;19930;-74
2022/10/13 05:59:41;;;;;;;;;;;18.90;54.80;;;;;;5108608;28;20459;-74
2022/10/13 06:02:08;;;;;;;;;;;19.00;55.00;;;;;;5090389;28;19930;-74
2022/10/13 06:04:38;;;;;;;;;;;19.10;55.10;;;;;;5089591;28;20333;-74
2022/10/13 06:07:04;;;;;;;;;;;19.30;55.20;;;;;;5126360;27;20368;-74
2022/10/13 06:09:33;;;;;;;;;;;19.30;55.10;;;;;;5105664;28;19920;-77
2022/10/13 06:11:59;;;;;;;;;;;19.40;55.10;;;;;;5102644;28;20011;-74
2022/10/13 06:14:25;;;;;;;;;;;19.60;55.00;;;;;;5068491;28;20015;-75
2022/10/13 06:16:50;;;;;;;;;;;19.70;54.90;;;;;;5088447;28;19931;-72
2022/10/13 06:19:16;;;;;;;;;;;19.70;54.70;;;;;;5089767;28;20329;-73
2022/10/13 06:21:41;;;;;;;;;;;19.80;54.80;;;;;;5106827;28;19926;-73
2022/10/13 06:24:07;;;;;;;;;;;19.90;54.80;;;;;;5088678;28;19927;-74
2022/10/13 06:26:32;;;;;;;;;;;20.00;54.80;;;;;;5107755;28;19967;-74
2022/10/13 06:28:58;;;;;;;;;;;20.10;54.60;;;;;;5079600;28;19959;-75
2022/10/13 06:31:24;;;;;;;;;;;20.10;54.30;;;;;;5081785;28;19920;-72
2022/10/13 06:33:50;;;;;;;;;;;20.20;54.40;;;;;;5094334;28;19931;-73
2022/10/13 06:36:15;;;;;;;;;;;20.20;54.40;;;;;;5081639;28;19923;-80
2022/10/13 06:38:41;;;;;;;;;;;20.30;54.60;;;;;;5079020;28;20428;-78
2022/10/13 06:41:06;;;;;;;;;;;20.30;54.70;;;;;;5109219;27;20022;-77
2022/10/13 06:43:32;;;;;;;;;;;20.40;54.80;;;;;;5075788;28;19923;-75
2022/10/13 06:45:58;;;;;;;;;;;20.50;55.70;;;;;;5081063;28;19928;-79
2022/10/13 06:48:24;;;;;;;;;;;20.50;55.50;;;;;;5092878;27;19927;-74
2022/10/13 06:50:49;;;;;;;;;;;20.50;55.10;;;;;;5066873;28;19924;-81
2022/10/13 06:53:15;;;;;;;;;;;20.60;55.10;;;;;;5106477;27;19919;-75
2022/10/13 06:55:42;;;;;;;;;;;20.60;55.30;;;;;;5096273;28;19928;-74
2022/10/13 06:58:08;;;;;;;;;;;20.70;55.30;;;;;;5075986;28;20418;-74
2022/10/13 07:00:34;;;;;;;;;;;20.70;55.20;;;;;;5078208;28;20002;-77
2022/10/13 07:02:59;;;;;;;;;;;20.70;55.00;;;;;;5096428;28;20050;-78
2022/10/13 07:05:25;;;;;;;;;;;20.80;55.00;;;;;;5075707;28;19931;-76
2022/10/13 07:07:51;;;;;;;;;;;20.80;55.00;;;;;;5096070;28;19923;-86
2022/10/13 07:10:17;;;;;;;;;;;20.80;54.90;;;;;;5079196;28;19927;-82
2022/10/13 07:12:42;;;;;;;;;;;20.80;54.80;;;;;;5075376;28;20445;-80
2022/10/13 07:15:08;;;;;;;;;;;20.90;54.70;;;;;;5112133;27;20000;-82
2022/10/13 07:17:34;;;;;;;;;;;20.90;54.50;;;;;;5095511;28;19924;-77
2022/10/13 07:20:01;;;;;;;;;;;20.90;54.60;;;;;;5076368;28;19924;-77
2022/10/13 07:22:27;;;;;;;;;;;21.00;54.50;;;;;;5076573;28;19928;-68
2022/10/13 07:24:52;;;;;;;;;;;21.00;54.70;;;;;;5095762;28;19947;-67
2022/10/13 07:27:18;;;;;;;;;;;21.10;54.80;;;;;;5084911;28;20395;-82
2022/10/13 07:29:43;;;;;;;;;;;21.20;54.40;;;;;;5076653;28;19931;-75
2022/10/13 07:32:09;;;;;;;;;;;21.30;54.50;;;;;;5076010;28;19990;-68
2022/10/13 07:34:34;;;;;;;;;;;21.30;54.20;;;;;;5097032;28;20682;-80
2022/10/13 07:37:00;;;;;;;;;;;21.40;54.00;;;;;;5076250;28;19966;-74
2022/10/13 07:39:25;;;;;;;;;;;21.50;53.90;;;;;;5094041;28;19930;-75
2022/10/13 07:41:51;;;;;;;;;;;21.50;53.80;;;;;;5077285;28;19923;-77
2022/10/13 07:44:16;;;;;;;;;;;21.60;53.70;;;;;;5093010;28;19981;-74
2022/10/13 07:46:42;;;;;;;;;;;21.60;53.60;;;;;;5076585;28;19924;-78
2022/10/13 07:49:08;;;;;;;;;;;21.60;53.60;;;;;;5109648;27;19928;-73
2022/10/13 07:51:33;;;;;;;;;;;21.50;53.90;;;;;;5076544;28;19924;-79
2022/10/13 07:53:59;;;;;;;;;;;21.40;54.00;;;;;;5076820;28;19986;-74
2022/10/13 07:56:24;;;;;;;;;;;21.40;54.40;;;;;;5110599;27;20269;-79
2022/10/13 07:58:50;;;;;;;;;;;21.30;54.50;;;;;;5094146;28;19924;-79
2022/10/13 08:01:16;;;;;;;;;;;21.20;54.50;;;;;;5075812;28;20290;-74
2022/10/13 08:03:42;;;;;;;;;;;21.20;54.70;;;;;;5094500;28;19931;-79
2022/10/13 08:06:08;;;;;;;;;;;21.20;55.00;;;;;;5078218;28;19924;-79
2022/10/13 08:08:34;;;;;;;;;;;21.10;55.20;;;;;;5074360;28;19931;-79
2022/10/13 08:11:01;;;;;;;;;;;21.10;55.40;;;;;;5076075;28;19924;-75
2022/10/13 08:13:26;;;;;;;;;;;21.20;55.10;;;;;;5074204;28;19923;-80
2022/10/13 08:15:58;;;;;;;;;;;21.20;55.20;;;;;;5109262;27;20021;-79
2022/10/13 08:18:23;;;;;;;;;;;21.20;55.10;;;;;;5084944;28;19920;-76
2022/10/13 08:20:49;;;;;;;;;;;21.30;55.00;;;;;;5092422;28;19938;-79
2022/10/13 08:23:14;;;;;;;;;;;21.30;55.00;;;;;;5073870;28;20456;-72
2022/10/13 08:25:40;;;;;;;;;;;21.30;54.80;;;;;;5080821;28;19928;-72
2022/10/13 08:28:14;;;;;;;;;;;21.40;54.60;;;;;;5074714;28;19920;-77
2022/10/13 08:30:40;;;;;;;;;;;21.40;54.60;;;;;;5093894;28;20276;-78
2022/10/13 08:33:05;;;;;;;;;;;21.40;54.60;;;;;;5071739;28;19924;-80
2022/10/13 08:35:31;;;;;;;;;;;21.40;54.90;;;;;;5078295;28;19923;-73
2022/10/13 08:37:56;;;;;;;;;;;21.40;54.90;;;;;;5077992;28;19951;-75
2022/10/13 08:40:22;;;;;;;;;;;21.40;55.00;;;;;;5079115;28;20463;-78
2022/10/13 08:42:48;;;;;;;;;;;21.50;55.30;;;;;;5073545;28;19928;-74
2022/10/13 08:45:17;;;;;;;;;;;21.50;55.10;;;;;;5081605;28;19928;-77
2022/10/13 08:47:46;;;;;;;;;;;21.50;55.30;;;;;;5079642;28;19969;-81
2022/10/13 08:50:13;;;;;;;;;;;21.50;56.30;;;;;;5109119;27;19924;-80
2022/10/13 08:52:43;;;;;;;;;;;21.10;55.30;;;;;;5077931;28;19930;-77
2022/10/13 08:55:16;;;;;;;;;;;21.50;55.50;;;;;;5077335;28;19920;-77
2022/10/13 08:57:43;;;;;;;;;;;21.50;55.50;;;;;;5092837;28;20384;-76
2022/10/13 09:00:11;;;;;;;;;;;21.60;55.50;;;;;;5073595;28;19920;-81
2022/10/13 09:02:36;;;;;;;;;;;21.60;55.40;;;;;;5073347;28;19924;-87
2022/10/13 09:05:03;;;;;;;;;;;21.60;55.30;;;;;;5073771;28;19946;-82
2022/10/13 09:07:33;;;;;;;;;;;21.60;55.20;;;;;;5082855;28;19924;-81
2022/10/13 09:09:58;;;;;;;;;;;21.60;55.10;;;;;;5082479;28;20287;-81
2022/10/13 09:12:24;;;;;;;;;;;21.60;55.00;;;;;;5077681;28;19928;-81
2022/10/13 09:15:10;;;;;;;;;;;21.60;54.80;;;;;;5109766;27;19924;-82
2022/10/13 09:17:36;;;;;;;;;;;21.60;54.70;;;;;;5077927;28;19924;-82
2022/10/13 09:22:40;;;;;;;;;;;21.70;54.60;;;;;;5081474;27;19921;-82
2022/10/13 09:27:53;;;;;;;;;;;21.70;54.40;;;;;;5088430;27;19916;-80
2022/10/13 09:33:18;;;;;;;;;;;21.70;54.30;;;;;;5094440;27;19927;-83
2022/10/13 09:35:47;;;;;;;;;;;21.70;54.20;;;;;;5100043;28;19928;-82
2022/10/13 09:43:35;;;;;;;;;;;21.70;54.10;;;;;;5111266;27;19920;-83
2022/10/13 09:46:01;;;;;;;;;;;21.80;54.00;;;;;;5113081;28;19920;-82
2022/10/13 09:48:29;;;;;;;;;;;21.70;54.00;;;;;;5075410;28;19921;-80
2022/10/13 09:50:56;;;;;;;;;;;21.70;53.90;;;;;;5065653;28;20663;-83
2022/10/13 09:53:24;;;;;;;;;;;21.70;53.90;;;;;;5105742;28;20714;-82
2022/10/13 09:56:05;;;;;;;;;;;21.80;53.90;;;;;;5107869;28;19974;-80
2022/10/13 09:58:33;;;;;;;;;;;21.80;53.90;;;;;;5073334;28;19920;-83
2022/10/13 10:00:58;;;;;;;;;;;21.80;53.90;;;;;;5079679;28;20287;-83
2022/10/13 10:06:05;;;;;;;;;;;21.80;53.80;;;;;;5099382;27;1867801;-83
2022/10/13 10:08:51;;;;;;;;;;;21.80;53.70;;;;;;5134375;27;19919;-84
2022/10/13 10:11:21;;;;;;;;;;;21.80;53.70;;;;;;5138007;27;20425;-83
2022/10/13 10:13:46;;;;;;;;;;;21.80;53.70;;;;;;5138983;27;19930;-83
2022/10/13 10:16:18;;;;;;;;;;;21.80;53.70;;;;;;5137399;27;20324;-84
2022/10/13 10:18:47;;;;;;;;;;;21.80;53.70;;;;;;5144663;27;19929;-82
2022/10/13 10:24:01;;;;;;;;;;;21.80;53.60;;;;;;5087327;27;19927;-75
2022/10/13 10:26:47;;;;;;;;;;;21.90;53.60;;;;;;5094285;28;19928;-78
2022/10/13 10:29:18;;;;;;;;;;;21.90;53.60;;;;;;5097810;28;19946;-77
2022/10/13 10:34:32;;;;;;;;;;;21.80;53.60;;;;;;5107158;27;19919;-76
2022/10/13 10:42:42;;;;;;;;;;;21.90;53.60;;;;;;5058336;28;19927;-81
2022/10/13 10:45:28;;;;;;;;;;;21.90;53.60;;;;;;5075783;28;19960;-74
2022/10/13 10:47:59;;;;;;;;;;;21.80;53.50;;;;;;5068050;28;20104;-72
2022/10/13 10:50:25;;;;;;;;;;;21.90;56.20;;;;;;5052631;28;19925;-78
2022/10/13 10:55:48;;;;;;;;;;;21.80;57.00;;;;;;5089958;27;19920;-79
2022/10/13 11:08:55;;;;;;;;;;;21.90;57.30;;;;;;5074110;27;19916;-79
2022/10/13 11:17:04;;;;;;;;;;;21.90;57.20;;;;;;5077869;27;19942;-73
2022/10/13 11:22:12;;;;;;;;;;;21.80;57.50;;;;;;5057283;28;19916;-72
2022/10/13 11:30:04;;;;;;;;;;;21.70;57.80;;;;;;5087810;27;19939;-69
2022/10/13 11:46:11;;;;;;;;;;;21.70;57.50;;;;;;5076322;27;19949;-70
2022/10/13 11:48:57;;;;;;;;;;;21.70;57.60;;;;;;5069986;28;19929;-72
2022/10/13 11:54:24;;;;;;;;;;;21.70;57.90;;;;;;5075127;27;19921;-71
2022/10/13 11:56:52;;;;;;;;;;;21.70;58.30;;;;;;5057128;28;20221;-74
2022/10/13 11:59:20;;;;;;;;;;;21.80;58.50;;;;;;5060983;28;20009;-76
2022/10/13 12:01:45;;;;;;;;;;;21.70;58.50;;;;;;5090157;28;19929;-74
2022/10/13 12:04:13;;;;;;;;;;;21.70;58.50;;;;;;5083701;28;19931;-73
2022/10/13 12:06:39;;;;;;;;;;;21.70;58.60;;;;;;5088973;28;19925;-75
2022/10/13 12:09:14;;;;;;;;;;;21.70;59.40;;;;;;5089426;28;20001;-74
2022/10/13 12:11:40;;;;;;;;;;;21.70;59.20;;;;;;5065057;28;20431;-74
2022/10/13 12:14:18;;;;;;;;;;;21.70;58.70;;;;;;5099068;28;19986;-72
2022/10/13 12:16:51;;;;;;;;;;;21.70;59.00;;;;;;5063866;28;19931;-71
2022/10/13 12:19:19;;;;;;;;;;;21.80;59.30;;;;;;5099760;28;19983;-67
2022/10/13 12:21:49;;;;;;;;;;;21.80;58.90;;;;;;5057018;28;19943;-71
2022/10/13 12:24:14;;;;;;;;;;;21.80;59.20;;;;;;5064345;28;19935;-75
2022/10/13 12:26:40;;;;;;;;;;;21.80;59.10;;;;;;5098365;28;19924;-76
2022/10/13 12:29:10;;;;;;;;;;;21.90;58.90;;;;;;5059891;28;20347;-70
2022/10/13 12:31:40;;;;;;;;;;;21.90;59.10;;;;;;5052564;28;19925;-75
2022/10/13 12:34:23;;;;;;;;;;;21.90;59.00;;;;;;5061721;28;19929;-71
2022/10/13 12:37:05;;;;;;;;;;;22.00;59.30;;;;;;5064537;28;19939;-72
2022/10/13 12:39:32;;;;;;;;;;;22.00;59.90;;;;;;5061933;28;19938;-86
2022/10/13 12:41:59;;;;;;;;;;;22.00;60.00;;;;;;5055593;28;19929;-72
2022/10/13 12:44:27;;;;;;;;;;;22.00;59.40;;;;;;5094247;28;19952;-76
2022/10/13 12:46:55;;;;;;;;;;;22.00;59.40;;;;;;5058444;28;19927;-78
2022/10/13 12:54:51;;;;;;;;;;;22.00;58.90;;;;;;5074289;27;19927;-77
2022/10/13 12:59:55;;;;;;;;;;;22.10;59.00;;;;;;5087044;27;1864648;-74
2022/10/13 13:02:23;;;;;;;;;;;22.00;59.10;;;;;;5132187;27;19919;-73
2022/10/13 13:04:49;;;;;;;;;;;22.00;59.20;;;;;;5133101;27;20554;-73
2022/10/13 13:12:42;;;;;;;;;;;22.00;60.30;;;;;;5073905;27;20506;-76
2022/10/13 13:15:17;;;;;;;;;;;21.90;60.20;;;;;;5063059;28;20002;-77
2022/10/13 13:17:44;;;;;;;;;;;21.90;60.30;;;;;;5059499;28;19921;-71
2022/10/13 13:20:18;;;;;;;;;;;21.90;60.70;;;;;;5060883;28;19936;-73
2022/10/13 13:22:43;;;;;;;;;;;21.90;60.30;;;;;;5060388;28;19931;-71
2022/10/13 13:25:09;;;;;;;;;;;21.90;60.50;;;;;;5060518;28;19921;-73
2022/10/13 13:27:37;;;;;;;;;;;22.00;60.60;;;;;;5062355;28;20003;-72
2022/10/13 13:30:08;;;;;;;;;;;21.90;60.50;;;;;;5063149;28;20102;-72
2022/10/13 13:32:34;;;;;;;;;;;21.80;60.50;;;;;;5064404;28;19986;-72
2022/10/13 13:34:59;;;;;;;;;;;21.80;60.60;;;;;;5060711;28;19928;-73
2022/10/13 13:37:46;;;;;;;;;;;21.80;60.70;;;;;;5063773;28;20013;-75
2022/10/13 13:40:14;;;;;;;;;;;21.80;60.60;;;;;;5063001;28;19928;-73
2022/10/13 13:42:40;;;;;;;;;;;21.80;60.40;;;;;;5061453;28;19922;-72
2022/10/13 13:45:05;;;;;;;;;;;21.80;60.40;;;;;;5062446;28;19924;-72
2022/10/13 13:47:31;;;;;;;;;;;21.80;60.60;;;;;;5062671;28;19921;-75
2022/10/13 13:49:57;;;;;;;;;;;21.80;60.40;;;;;;5063998;28;19920;-74
2022/10/13 13:52:24;;;;;;;;;;;21.80;60.30;;;;;;5060604;28;19925;-72
2022/10/13 13:54:50;;;;;;;;;;;21.80;61.10;;;;;;5062003;28;19921;-73
2022/10/13 13:57:15;;;;;;;;;;;21.80;60.00;;;;;;5060795;28;19928;-73
2022/10/13 13:59:41;;;;;;;;;;;21.90;59.90;;;;;;5061440;28;19929;-75
2022/10/13 14:02:12;;;;;;;;;;;21.90;59.90;;;;;;5062018;28;20531;-71
2022/10/13 14:04:38;;;;;;;;;;;22.00;59.70;;;;;;5062304;28;19921;-70
2022/10/13 14:07:03;;;;;;;;;;;22.00;59.70;;;;;;5062346;28;19924;-74
2022/10/13 14:09:29;;;;;;;;;;;22.00;59.40;;;;;;5063942;28;19921;-73
2022/10/13 14:11:54;;;;;;;;;;;22.00;59.50;;;;;;5062440;28;20513;-73
2022/10/13 14:14:20;;;;;;;;;;;22.00;59.50;;;;;;5062929;28;20403;-73
2022/10/13 14:16:45;;;;;;;;;;;22.00;59.30;;;;;;5063997;28;19946;-78
2022/10/13 14:19:11;;;;;;;;;;;21.90;59.30;;;;;;5060797;28;20368;-73
2022/10/13 14:21:37;;;;;;;;;;;22.00;59.30;;;;;;5060391;28;19920;-76
2022/10/13 14:24:03;;;;;;;;;;;22.00;59.30;;;;;;5047206;28;19920;-75
2022/10/13 14:26:29;;;;;;;;;;;21.90;59.30;;;;;;5048799;28;19953;-75
2022/10/13 14:28:55;;;;;;;;;;;21.80;59.00;;;;;;5050975;28;19920;-74
2022/10/13 14:31:20;;;;;;;;;;;21.80;59.00;;;;;;5050976;28;19925;-75
2022/10/13 14:33:48;;;;;;;;;;;21.80;59.20;;;;;;5045968;28;20576;-73
2022/10/13 14:36:14;;;;;;;;;;;21.80;59.30;;;;;;5060485;28;20422;-76
2022/10/13 14:38:40;;;;;;;;;;;21.70;59.50;;;;;;5049914;28;19955;-77
2022/10/13 14:41:06;;;;;;;;;;;21.70;59.60;;;;;;5048441;28;19921;-78
2022/10/13 14:43:31;;;;;;;;;;;21.60;59.70;;;;;;5048430;28;20281;-78
2022/10/13 14:46:02;;;;;;;;;;;21.70;59.80;;;;;;5050448;28;20419;-77
2022/10/13 14:48:29;;;;;;;;;;;21.60;60.00;;;;;;5049977;28;20446;-72
2022/10/13 14:50:54;;;;;;;;;;;21.50;59.90;;;;;;5050483;28;19935;-72
2022/10/13 14:53:20;;;;;;;;;;;21.60;59.60;;;;;;5051169;28;19921;-72
2022/10/13 14:55:45;;;;;;;;;;;21.60;59.50;;;;;;5049702;28;19920;-72
2022/10/13 14:58:11;;;;;;;;;;;21.60;59.40;;;;;;5051537;28;19966;-73
2022/10/13 15:00:37;;;;;;;;;;;21.60;59.20;;;;;;5049454;28;19921;-73
2022/10/13 15:03:03;;;;;;;;;;;21.60;59.20;;;;;;5049025;28;19921;-73
2022/10/13 15:05:28;;;;;;;;;;;21.70;59.20;;;;;;5048101;28;19925;-74
2022/10/13 15:07:54;;;;;;;;;;;21.70;59.10;;;;;;5049038;28;20020;-74
2022/10/13 15:10:19;;;;;;;;;;;21.70;59.20;;;;;;5049183;28;20332;-73
2022/10/13 15:12:45;;;;;;;;;;;21.70;59.10;;;;;;5047766;28;19921;-74
2022/10/13 15:15:11;;;;;;;;;;;21.60;59.00;;;;;;5048454;28;19921;-74
2022/10/13 15:17:37;;;;;;;;;;;21.60;59.00;;;;;;5050131;28;19960;-74
2022/10/13 15:20:03;;;;;;;;;;;21.60;59.00;;;;;;5050856;28;19964;-76
2022/10/13 15:22:29;;;;;;;;;;;21.60;59.10;;;;;;5050191;28;20007;-73
2022/10/13 15:24:54;;;;;;;;;;;21.60;59.00;;;;;;5050890;28;20504;-74
2022/10/13 15:27:20;;;;;;;;;;;21.60;59.00;;;;;;5051259;28;19924;-74
2022/10/13 15:29:45;;;;;;;;;;;21.60;58.90;;;;;;5050632;28;19920;-74
2022/10/13 15:32:12;;;;;;;;;;;21.50;58.80;;;;;;5049001;28;19935;-74
2022/10/13 15:34:38;;;;;;;;;;;21.60;58.90;;;;;;5048772;28;19987;-74
2022/10/13 15:37:04;;;;;;;;;;;21.50;58.90;;;;;;5052139;28;20019;-74
2022/10/13 15:39:30;;;;;;;;;;;21.50;58.90;;;;;;5051760;28;20019;-70
2022/10/13 15:41:55;;;;;;;;;;;21.50;58.90;;;;;;5050376;28;20354;-70
2022/10/13 15:44:23;;;;;;;;;;;21.50;58.90;;;;;;5052330;28;20368;-74
2022/10/13 15:46:49;;;;;;;;;;;21.50;58.90;;;;;;5051581;28;19920;-74
2022/10/13 15:49:14;;;;;;;;;;;21.50;58.90;;;;;;5052285;28;20402;-74
2022/10/13 15:51:40;;;;;;;;;;;21.40;58.80;;;;;;5051359;28;20012;-74
2022/10/13 15:54:05;;;;;;;;;;;21.40;58.80;;;;;;5049779;28;19920;-74